sensor_id;sensor_type;location;lat;lon;timestamp;temperature;humidity
2783;DHT22;1399;47.072;15.452;2023-05-19T00:00:15;16.20;53.10
2783;DHT22;1399;47.072;15.452;2023-05-19T00:02:41;16.20;53.10
2783;DHT22;1399;47.072;15.452;2023-05-19T00:05:12;16.20;53.10
2783;DHT22;1399;47.072;15.452;2023-05-19T00:07:40;16.20;53.20
2783;DHT22;1399;47.072;15.452;2023-05-19T00:10:08;16.20;53.20
2783;DHT22;1399;47.072;15.452;2023-05-19T00:12:35;16.20;53.30
2783;DHT22;1399;47.072;15.452;2023-05-19T00:15:01;16.20;53.40
2783;DHT22;1399;47.072;15.452;2023-05-19T00:17:26;16.20;53.40
2783;DHT22;1399;47.072;15.452;2023-05-19T00:19:52;16.10;53.40
2783;DHT22;1399;47.072;15.452;2023-05-19T00:22:19;16.20;53.50
2783;DHT22;1399;47.072;15.452;2023-05-19T00:24:44;16.10;53.50
2783;DHT22;1399;47.072;15.452;2023-05-19T00:27:10;16.10;53.60
2783;DHT22;1399;47.072;15.452;2023-05-19T00:29:36;16.10;53.70
2783;DHT22;1399;47.072;15.452;2023-05-19T00:32:02;16.10;53.80
2783;DHT22;1399;47.072;15.452;2023-05-19T00:34:27;16.10;53.90
2783;DHT22;1399;47.072;15.452;2023-05-19T00:36:53;16.10;54.10
2783;DHT22;1399;47.072;15.452;2023-05-19T00:39:19;16.10;54.20
2783;DHT22;1399;47.072;15.452;2023-05-19T00:41:44;16.10;54.20
2783;DHT22;1399;47.072;15.452;2023-05-19T00:44:10;16.10;54.30
2783;DHT22;1399;47.072;15.452;2023-05-19T00:46:36;16.00;54.30
2783;DHT22;1399;47.072;15.452;2023-05-19T00:49:02;16.00;54.40
2783;DHT22;1399;47.072;15.452;2023-05-19T00:51:31;16.00;54.40
2783;DHT22;1399;47.072;15.452;2023-05-19T00:53:57;16.00;54.50
2783;DHT22;1399;47.072;15.452;2023-05-19T00:56:22;16.00;54.50
2783;DHT22;1399;47.072;15.452;2023-05-19T00:58:50;16.00;54.50
2783;DHT22;1399;47.072;15.452;2023-05-19T01:01:16;16.00;54.60
2783;DHT22;1399;47.072;15.452;2023-05-19T01:03:44;16.00;54.70
2783;DHT22;1399;47.072;15.452;2023-05-19T01:06:11;16.00;54.70
2783;DHT22;1399;47.072;15.452;2023-05-19T01:08:38;16.00;54.70
2783;DHT22;1399;47.072;15.452;2023-05-19T01:11:05;16.00;54.80
2783;DHT22;1399;47.072;15.452;2023-05-19T01:13:32;16.00;54.80
2783;DHT22;1399;47.072;15.452;2023-05-19T01:26:36;16.00;55.10
2783;DHT22;1399;47.072;15.452;2023-05-19T01:31:40;16.00;55.10
2783;DHT22;1399;47.072;15.452;2023-05-19T01:34:06;15.90;55.10
2783;DHT22;1399;47.072;15.452;2023-05-19T01:36:35;16.00;55.30
2783;DHT22;1399;47.072;15.452;2023-05-19T01:39:02;15.90;55.30
2783;DHT22;1399;47.072;15.452;2023-05-19T01:41:29;15.90;55.30
2783;DHT22;1399;47.072;15.452;2023-05-19T01:43:57;16.00;55.50
2783;DHT22;1399;47.072;15.452;2023-05-19T01:46:23;15.90;55.40
2783;DHT22;1399;47.072;15.452;2023-05-19T01:48:49;15.90;55.40
2783;DHT22;1399;47.072;15.452;2023-05-19T01:51:15;15.90;55.40
2783;DHT22;1399;47.072;15.452;2023-05-19T01:53:41;15.90;55.30
2783;DHT22;1399;47.072;15.452;2023-05-19T01:56:07;15.90;55.30
2783;DHT22;1399;47.072;15.452;2023-05-19T02:11:36;15.90;55.40
2783;DHT22;1399;47.072;15.452;2023-05-19T02:14:14;15.90;55.40
2783;DHT22;1399;47.072;15.452;2023-05-19T02:16:44;15.90;55.30
2783;DHT22;1399;47.072;15.452;2023-05-19T02:19:24;15.90;55.40
2783;DHT22;1399;47.072;15.452;2023-05-19T02:21:50;15.90;55.40
2783;DHT22;1399;47.072;15.452;2023-05-19T02:24:17;15.90;55.30
2783;DHT22;1399;47.072;15.452;2023-05-19T02:26:42;15.90;55.30
2783;DHT22;1399;47.072;15.452;2023-05-19T02:29:08;15.90;55.30
2783;DHT22;1399;47.072;15.452;2023-05-19T02:31:34;15.90;55.30
2783;DHT22;1399;47.072;15.452;2023-05-19T02:34:00;15.90;55.40
2783;DHT22;1399;47.072;15.452;2023-05-19T02:36:25;15.90;55.40
2783;DHT22;1399;47.072;15.452;2023-05-19T02:38:52;15.90;55.40
2783;DHT22;1399;47.072;15.452;2023-05-19T02:41:18;15.90;55.40
2783;DHT22;1399;47.072;15.452;2023-05-19T02:43:44;15.90;55.40
2783;DHT22;1399;47.072;15.452;2023-05-19T02:46:10;15.90;55.40
2783;DHT22;1399;47.072;15.452;2023-05-19T02:48:35;15.90;55.40
2783;DHT22;1399;47.072;15.452;2023-05-19T02:51:01;15.90;55.40
2783;DHT22;1399;47.072;15.452;2023-05-19T02:53:27;15.90;55.50
2783;DHT22;1399;47.072;15.452;2023-05-19T02:55:52;15.90;55.50
2783;DHT22;1399;47.072;15.452;2023-05-19T02:58:18;15.80;55.50
2783;DHT22;1399;47.072;15.452;2023-05-19T03:00:45;15.80;55.50
2783;DHT22;1399;47.072;15.452;2023-05-19T03:03:10;15.80;55.50
2783;DHT22;1399;47.072;15.452;2023-05-19T03:05:36;15.80;55.50
2783;DHT22;1399;47.072;15.452;2023-05-19T03:08:02;15.80;55.50
2783;DHT22;1399;47.072;15.452;2023-05-19T03:10:28;15.80;55.40
2783;DHT22;1399;47.072;15.452;2023-05-19T03:12:53;15.80;55.50
2783;DHT22;1399;47.072;15.452;2023-05-19T03:15:19;15.80;55.50
2783;DHT22;1399;47.072;15.452;2023-05-19T03:17:47;15.90;55.50
2783;DHT22;1399;47.072;15.452;2023-05-19T03:20:13;15.80;55.50
2783;DHT22;1399;47.072;15.452;2023-05-19T03:22:40;15.80;55.50
2783;DHT22;1399;47.072;15.452;2023-05-19T03:25:06;15.80;55.40
2783;DHT22;1399;47.072;15.452;2023-05-19T03:27:32;15.80;55.40
2783;DHT22;1399;47.072;15.452;2023-05-19T03:29:58;15.80;55.40
2783;DHT22;1399;47.072;15.452;2023-05-19T03:32:24;15.80;55.50
2783;DHT22;1399;47.072;15.452;2023-05-19T03:34:49;15.80;55.40
2783;DHT22;1399;47.072;15.452;2023-05-19T03:37:15;15.80;55.50
2783;DHT22;1399;47.072;15.452;2023-05-19T03:39:41;15.80;55.50
2783;DHT22;1399;47.072;15.452;2023-05-19T03:42:07;15.80;55.50
2783;DHT22;1399;47.072;15.452;2023-05-19T03:44:32;15.80;55.60
2783;DHT22;1399;47.072;15.452;2023-05-19T03:46:58;15.80;55.70
2783;DHT22;1399;47.072;15.452;2023-05-19T03:49:24;15.80;55.70
2783;DHT22;1399;47.072;15.452;2023-05-19T03:51:49;15.80;55.80
2783;DHT22;1399;47.072;15.452;2023-05-19T03:54:15;15.80;55.80
2783;DHT22;1399;47.072;15.452;2023-05-19T03:56:42;15.80;55.90
2783;DHT22;1399;47.072;15.452;2023-05-19T03:59:08;15.80;55.90
2783;DHT22;1399;47.072;15.452;2023-05-19T04:01:37;15.80;55.90
2783;DHT22;1399;47.072;15.452;2023-05-19T04:04:03;15.80;55.90
2783;DHT22;1399;47.072;15.452;2023-05-19T04:06:28;15.80;55.90
2783;DHT22;1399;47.072;15.452;2023-05-19T04:08:55;15.80;56.00
2783;DHT22;1399;47.072;15.452;2023-05-19T04:11:21;15.80;56.00
2783;DHT22;1399;47.072;15.452;2023-05-19T04:13:46;15.80;56.10
2783;DHT22;1399;47.072;15.452;2023-05-19T04:16:13;15.80;56.10
2783;DHT22;1399;47.072;15.452;2023-05-19T04:18:38;15.80;56.10
2783;DHT22;1399;47.072;15.452;2023-05-19T04:21:04;15.80;56.10
2783;DHT22;1399;47.072;15.452;2023-05-19T04:23:30;15.80;56.10
2783;DHT22;1399;47.072;15.452;2023-05-19T04:25:57;15.80;56.10
2783;DHT22;1399;47.072;15.452;2023-05-19T04:28:23;15.80;56.20
2783;DHT22;1399;47.072;15.452;2023-05-19T04:30:49;15.90;56.20
2783;DHT22;1399;47.072;15.452;2023-05-19T04:33:15;15.90;56.30
2783;DHT22;1399;47.072;15.452;2023-05-19T04:35:41;15.90;56.30
2783;DHT22;1399;47.072;15.452;2023-05-19T04:38:08;15.90;56.30
2783;DHT22;1399;47.072;15.452;2023-05-19T04:40:34;15.90;56.30
2783;DHT22;1399;47.072;15.452;2023-05-19T04:43:00;15.90;56.40
2783;DHT22;1399;47.072;15.452;2023-05-19T04:45:26;15.90;56.40
2783;DHT22;1399;47.072;15.452;2023-05-19T04:47:52;15.90;56.50
2783;DHT22;1399;47.072;15.452;2023-05-19T04:50:22;15.90;56.50
2783;DHT22;1399;47.072;15.452;2023-05-19T04:52:48;15.90;56.60
2783;DHT22;1399;47.072;15.452;2023-05-19T04:55:14;15.90;56.70
2783;DHT22;1399;47.072;15.452;2023-05-19T04:57:40;15.90;56.70
2783;DHT22;1399;47.072;15.452;2023-05-19T05:00:06;15.90;56.80
2783;DHT22;1399;47.072;15.452;2023-05-19T05:02:34;15.90;56.90
2783;DHT22;1399;47.072;15.452;2023-05-19T05:05:00;15.90;57.10
2783;DHT22;1399;47.072;15.452;2023-05-19T05:07:27;16.00;57.10
2783;DHT22;1399;47.072;15.452;2023-05-19T05:09:52;16.00;57.10
2783;DHT22;1399;47.072;15.452;2023-05-19T05:12:18;16.00;57.10
2783;DHT22;1399;47.072;15.452;2023-05-19T05:14:44;16.00;57.10
2783;DHT22;1399;47.072;15.452;2023-05-19T05:17:11;16.00;57.70
2783;DHT22;1399;47.072;15.452;2023-05-19T05:19:37;16.00;57.10
2783;DHT22;1399;47.072;15.452;2023-05-19T05:22:03;16.00;57.10
2783;DHT22;1399;47.072;15.452;2023-05-19T05:24:30;16.00;57.10
2783;DHT22;1399;47.072;15.452;2023-05-19T05:26:57;16.00;57.10
2783;DHT22;1399;47.072;15.452;2023-05-19T05:29:24;16.00;57.00
2783;DHT22;1399;47.072;15.452;2023-05-19T05:31:49;16.00;57.00
2783;DHT22;1399;47.072;15.452;2023-05-19T05:34:15;16.10;57.10
2783;DHT22;1399;47.072;15.452;2023-05-19T05:36:41;16.10;57.00
2783;DHT22;1399;47.072;15.452;2023-05-19T05:39:07;16.10;56.90
2783;DHT22;1399;47.072;15.452;2023-05-19T05:41:33;16.10;56.90
2783;DHT22;1399;47.072;15.452;2023-05-19T05:44:02;16.10;56.90
2783;DHT22;1399;47.072;15.452;2023-05-19T05:46:28;16.10;57.00
2783;DHT22;1399;47.072;15.452;2023-05-19T05:48:54;16.20;57.10
2783;DHT22;1399;47.072;15.452;2023-05-19T05:51:23;16.20;57.00
2783;DHT22;1399;47.072;15.452;2023-05-19T05:53:53;16.20;57.10
2783;DHT22;1399;47.072;15.452;2023-05-19T05:56:20;16.20;57.10
2783;DHT22;1399;47.072;15.452;2023-05-19T05:58:46;16.20;57.10
2783;DHT22;1399;47.072;15.452;2023-05-19T06:01:12;16.20;57.10
2783;DHT22;1399;47.072;15.452;2023-05-19T06:03:42;16.30;57.10
2783;DHT22;1399;47.072;15.452;2023-05-19T06:06:10;16.30;57.10
2783;DHT22;1399;47.072;15.452;2023-05-19T06:08:36;16.30;57.10
2783;DHT22;1399;47.072;15.452;2023-05-19T06:11:02;16.30;57.10
2783;DHT22;1399;47.072;15.452;2023-05-19T06:13:37;16.30;57.00
2783;DHT22;1399;47.072;15.452;2023-05-19T06:16:03;16.40;57.10
2783;DHT22;1399;47.072;15.452;2023-05-19T06:18:29;16.40;57.10
2783;DHT22;1399;47.072;15.452;2023-05-19T06:20:54;16.40;57.20
2783;DHT22;1399;47.072;15.452;2023-05-19T06:23:20;16.40;57.10
2783;DHT22;1399;47.072;15.452;2023-05-19T06:25:46;16.50;57.10
2783;DHT22;1399;47.072;15.452;2023-05-19T06:28:12;16.50;57.10
2783;DHT22;1399;47.072;15.452;2023-05-19T06:30:38;16.50;57.00
2783;DHT22;1399;47.072;15.452;2023-05-19T06:33:03;16.60;57.00
2783;DHT22;1399;47.072;15.452;2023-05-19T06:35:29;16.70;57.00
2783;DHT22;1399;47.072;15.452;2023-05-19T06:37:55;16.70;56.80
2783;DHT22;1399;47.072;15.452;2023-05-19T06:40:22;16.70;56.70
2783;DHT22;1399;47.072;15.452;2023-05-19T06:42:48;16.70;56.60
2783;DHT22;1399;47.072;15.452;2023-05-19T06:45:13;16.80;56.40
2783;DHT22;1399;47.072;15.452;2023-05-19T06:47:39;16.80;56.30
2783;DHT22;1399;47.072;15.452;2023-05-19T06:50:09;16.90;56.20
2783;DHT22;1399;47.072;15.452;2023-05-19T06:52:36;16.90;56.10
2783;DHT22;1399;47.072;15.452;2023-05-19T06:55:02;16.90;55.90
2783;DHT22;1399;47.072;15.452;2023-05-19T06:57:28;17.00;55.80
2783;DHT22;1399;47.072;15.452;2023-05-19T06:59:54;17.00;55.50
2783;DHT22;1399;47.072;15.452;2023-05-19T07:02:19;17.10;55.40
2783;DHT22;1399;47.072;15.452;2023-05-19T07:04:45;17.10;55.20
2783;DHT22;1399;47.072;15.452;2023-05-19T07:07:12;17.20;55.10
2783;DHT22;1399;47.072;15.452;2023-05-19T07:09:37;17.30;54.90
2783;DHT22;1399;47.072;15.452;2023-05-19T07:12:03;17.30;54.70
2783;DHT22;1399;47.072;15.452;2023-05-19T07:14:29;17.30;54.60
2783;DHT22;1399;47.072;15.452;2023-05-19T07:16:55;17.40;54.60
2783;DHT22;1399;47.072;15.452;2023-05-19T07:19:21;17.50;54.40
2783;DHT22;1399;47.072;15.452;2023-05-19T07:21:48;17.50;54.20
2783;DHT22;1399;47.072;15.452;2023-05-19T07:24:14;17.60;54.10
2783;DHT22;1399;47.072;15.452;2023-05-19T07:26:40;17.70;54.00
2783;DHT22;1399;47.072;15.452;2023-05-19T07:29:07;17.80;53.90
2783;DHT22;1399;47.072;15.452;2023-05-19T07:31:32;17.90;53.70
2783;DHT22;1399;47.072;15.452;2023-05-19T07:34:05;17.90;53.50
2783;DHT22;1399;47.072;15.452;2023-05-19T07:36:31;18.00;53.40
2783;DHT22;1399;47.072;15.452;2023-05-19T07:38:58;18.10;53.30
2783;DHT22;1399;47.072;15.452;2023-05-19T07:41:24;18.10;53.20
2783;DHT22;1399;47.072;15.452;2023-05-19T07:43:50;18.20;53.00
2783;DHT22;1399;47.072;15.452;2023-05-19T07:46:16;18.40;52.90
2783;DHT22;1399;47.072;15.452;2023-05-19T07:48:42;18.50;52.50
2783;DHT22;1399;47.072;15.452;2023-05-19T07:51:08;18.70;52.20
2783;DHT22;1399;47.072;15.452;2023-05-19T07:53:36;18.90;52.00
2783;DHT22;1399;47.072;15.452;2023-05-19T07:56:03;19.00;51.60
2783;DHT22;1399;47.072;15.452;2023-05-19T07:58:29;19.20;51.40
2783;DHT22;1399;47.072;15.452;2023-05-19T08:00:59;19.30;51.10
2783;DHT22;1399;47.072;15.452;2023-05-19T08:03:25;19.40;51.00
2783;DHT22;1399;47.072;15.452;2023-05-19T08:05:51;19.50;50.90
2783;DHT22;1399;47.072;15.452;2023-05-19T08:08:17;19.50;50.80
2783;DHT22;1399;47.072;15.452;2023-05-19T08:10:44;19.60;50.80
2783;DHT22;1399;47.072;15.452;2023-05-19T08:13:10;19.60;50.70
2783;DHT22;1399;47.072;15.452;2023-05-19T08:15:36;19.70;50.70
2783;DHT22;1399;47.072;15.452;2023-05-19T08:18:02;19.60;50.60
2783;DHT22;1399;47.072;15.452;2023-05-19T08:20:30;19.70;50.60
2783;DHT22;1399;47.072;15.452;2023-05-19T08:22:56;19.60;50.60
2783;DHT22;1399;47.072;15.452;2023-05-19T08:25:21;19.60;50.60
2783;DHT22;1399;47.072;15.452;2023-05-19T08:27:47;19.70;50.70
2783;DHT22;1399;47.072;15.452;2023-05-19T08:30:13;19.70;50.70
2783;DHT22;1399;47.072;15.452;2023-05-19T08:32:39;19.70;50.60
2783;DHT22;1399;47.072;15.452;2023-05-19T08:35:05;19.70;50.60
2783;DHT22;1399;47.072;15.452;2023-05-19T08:37:30;19.70;50.60
2783;DHT22;1399;47.072;15.452;2023-05-19T08:39:56;19.70;50.60
2783;DHT22;1399;47.072;15.452;2023-05-19T08:42:22;19.70;50.70
2783;DHT22;1399;47.072;15.452;2023-05-19T08:44:48;19.60;50.60
2783;DHT22;1399;47.072;15.452;2023-05-19T08:47:14;19.60;50.70
2783;DHT22;1399;47.072;15.452;2023-05-19T08:49:44;19.70;50.80
2783;DHT22;1399;47.072;15.452;2023-05-19T08:54:45;19.70;50.70
2783;DHT22;1399;47.072;15.452;2023-05-19T08:57:15;19.80;50.70
2783;DHT22;1399;47.072;15.452;2023-05-19T08:59:42;19.90;50.60
2783;DHT22;1399;47.072;15.452;2023-05-19T09:02:09;19.90;50.60
2783;DHT22;1399;47.072;15.452;2023-05-19T09:04:35;19.90;50.60
2783;DHT22;1399;47.072;15.452;2023-05-19T09:07:03;19.90;50.50
2783;DHT22;1399;47.072;15.452;2023-05-19T09:09:29;20.00;50.50
2783;DHT22;1399;47.072;15.452;2023-05-19T09:11:55;20.10;50.70
2783;DHT22;1399;47.072;15.452;2023-05-19T09:14:21;20.10;50.30
2783;DHT22;1399;47.072;15.452;2023-05-19T09:16:47;20.20;50.30
2783;DHT22;1399;47.072;15.452;2023-05-19T09:19:16;20.20;50.20
2783;DHT22;1399;47.072;15.452;2023-05-19T09:21:42;20.20;50.10
2783;DHT22;1399;47.072;15.452;2023-05-19T09:24:10;20.30;50.20
2783;DHT22;1399;47.072;15.452;2023-05-19T09:26:37;20.30;50.10
2783;DHT22;1399;47.072;15.452;2023-05-19T09:29:16;20.30;50.20
2783;DHT22;1399;47.072;15.452;2023-05-19T09:31:52;20.30;50.20
2783;DHT22;1399;47.072;15.452;2023-05-19T09:34:22;20.30;50.30
2783;DHT22;1399;47.072;15.452;2023-05-19T09:36:49;20.30;50.20
2783;DHT22;1399;47.072;15.452;2023-05-19T09:39:20;20.30;50.20
2783;DHT22;1399;47.072;15.452;2023-05-19T09:41:46;20.30;50.30
2783;DHT22;1399;47.072;15.452;2023-05-19T09:44:25;20.30;50.20
2783;DHT22;1399;47.072;15.452;2023-05-19T09:46:54;20.40;50.20
2783;DHT22;1399;47.072;15.452;2023-05-19T09:49:25;20.40;50.10
2783;DHT22;1399;47.072;15.452;2023-05-19T09:51:54;20.40;50.00
2783;DHT22;1399;47.072;15.452;2023-05-19T09:54:21;20.50;50.00
2783;DHT22;1399;47.072;15.452;2023-05-19T09:56:56;20.50;50.00
2783;DHT22;1399;47.072;15.452;2023-05-19T09:59:23;20.50;50.00
2783;DHT22;1399;47.072;15.452;2023-05-19T10:01:55;20.60;50.00
2783;DHT22;1399;47.072;15.452;2023-05-19T10:04:22;20.60;50.00
2783;DHT22;1399;47.072;15.452;2023-05-19T10:06:56;20.70;50.00
2783;DHT22;1399;47.072;15.452;2023-05-19T10:09:27;20.70;50.00
2783;DHT22;1399;47.072;15.452;2023-05-19T10:11:57;20.70;49.90
2783;DHT22;1399;47.072;15.452;2023-05-19T10:14:25;20.70;50.00
2783;DHT22;1399;47.072;15.452;2023-05-19T10:16:52;20.70;50.00
2783;DHT22;1399;47.072;15.452;2023-05-19T10:19:23;20.70;50.00
2783;DHT22;1399;47.072;15.452;2023-05-19T10:21:49;20.70;50.00
2783;DHT22;1399;47.072;15.452;2023-05-19T10:24:16;20.70;50.00
2783;DHT22;1399;47.072;15.452;2023-05-19T10:26:48;20.70;50.10
2783;DHT22;1399;47.072;15.452;2023-05-19T10:29:16;20.70;50.20
2783;DHT22;1399;47.072;15.452;2023-05-19T10:31:45;20.70;50.30
2783;DHT22;1399;47.072;15.452;2023-05-19T10:37:15;20.80;50.20
2783;DHT22;1399;47.072;15.452;2023-05-19T10:39:46;20.80;49.90
2783;DHT22;1399;47.072;15.452;2023-05-19T10:42:15;20.90;49.70
2783;DHT22;1399;47.072;15.452;2023-05-19T10:45:12;20.90;49.70
2783;DHT22;1399;47.072;15.452;2023-05-19T10:47:41;20.90;49.60
2783;DHT22;1399;47.072;15.452;2023-05-19T10:50:07;20.90;49.70
2783;DHT22;1399;47.072;15.452;2023-05-19T10:52:36;20.90;50.10
2783;DHT22;1399;47.072;15.452;2023-05-19T10:55:02;20.80;50.00
2783;DHT22;1399;47.072;15.452;2023-05-19T10:57:29;20.80;50.10
2783;DHT22;1399;47.072;15.452;2023-05-19T11:00:01;20.80;50.30
2783;DHT22;1399;47.072;15.452;2023-05-19T11:02:42;20.70;50.30
2783;DHT22;1399;47.072;15.452;2023-05-19T11:05:15;20.70;50.30
2783;DHT22;1399;47.072;15.452;2023-05-19T11:07:55;20.80;50.40
2783;DHT22;1399;47.072;15.452;2023-05-19T11:10:24;20.80;50.20
2783;DHT22;1399;47.072;15.452;2023-05-19T11:12:51;20.90;50.10
2783;DHT22;1399;47.072;15.452;2023-05-19T11:15:17;20.90;50.00
2783;DHT22;1399;47.072;15.452;2023-05-19T11:17:47;21.00;50.00
2783;DHT22;1399;47.072;15.452;2023-05-19T11:20:29;20.90;49.90
2783;DHT22;1399;47.072;15.452;2023-05-19T11:23:14;20.90;49.90
2783;DHT22;1399;47.072;15.452;2023-05-19T11:28:11;20.80;49.80
2783;DHT22;1399;47.072;15.452;2023-05-19T11:30:42;20.80;49.80
2783;DHT22;1399;47.072;15.452;2023-05-19T11:33:09;20.80;49.80
2783;DHT22;1399;47.072;15.452;2023-05-19T11:35:35;20.80;49.90
2783;DHT22;1399;47.072;15.452;2023-05-19T11:38:01;20.80;50.20
2783;DHT22;1399;47.072;15.452;2023-05-19T11:40:29;20.80;50.40
2783;DHT22;1399;47.072;15.452;2023-05-19T11:42:55;20.80;50.40
2783;DHT22;1399;47.072;15.452;2023-05-19T11:45:24;20.80;50.30
2783;DHT22;1399;47.072;15.452;2023-05-19T11:47:50;20.80;50.20
2783;DHT22;1399;47.072;15.452;2023-05-19T11:50:17;20.90;50.10
2783;DHT22;1399;47.072;15.452;2023-05-19T11:52:44;20.90;50.00
2783;DHT22;1399;47.072;15.452;2023-05-19T11:55:15;20.90;50.00
2783;DHT22;1399;47.072;15.452;2023-05-19T11:57:40;20.90;49.90
2783;DHT22;1399;47.072;15.452;2023-05-19T12:00:09;20.90;49.80
2783;DHT22;1399;47.072;15.452;2023-05-19T12:02:36;20.90;49.70
2783;DHT22;1399;47.072;15.452;2023-05-19T12:05:03;20.90;49.50
2783;DHT22;1399;47.072;15.452;2023-05-19T12:07:28;21.00;49.50
2783;DHT22;1399;47.072;15.452;2023-05-19T12:09:55;21.00;49.30
2783;DHT22;1399;47.072;15.452;2023-05-19T12:12:22;21.00;49.30
2783;DHT22;1399;47.072;15.452;2023-05-19T12:14:51;21.00;49.10
2783;DHT22;1399;47.072;15.452;2023-05-19T12:17:19;21.00;49.10
2783;DHT22;1399;47.072;15.452;2023-05-19T12:19:48;21.00;49.00
2783;DHT22;1399;47.072;15.452;2023-05-19T12:22:16;21.00;49.00
2783;DHT22;1399;47.072;15.452;2023-05-19T12:24:43;21.00;48.90
2783;DHT22;1399;47.072;15.452;2023-05-19T12:29:42;21.00;49.10
2783;DHT22;1399;47.072;15.452;2023-05-19T12:32:08;21.00;49.10
2783;DHT22;1399;47.072;15.452;2023-05-19T12:34:40;21.00;49.40
2783;DHT22;1399;47.072;15.452;2023-05-19T12:37:07;21.10;49.60
2783;DHT22;1399;47.072;15.452;2023-05-19T12:39:33;21.10;49.40
2783;DHT22;1399;47.072;15.452;2023-05-19T12:42:09;21.10;49.50
2783;DHT22;1399;47.072;15.452;2023-05-19T12:44:44;21.10;49.40
2783;DHT22;1399;47.072;15.452;2023-05-19T12:47:16;21.10;49.60
2783;DHT22;1399;47.072;15.452;2023-05-19T12:52:27;21.20;49.70
2783;DHT22;1399;47.072;15.452;2023-05-19T12:55:07;21.20;49.80
2783;DHT22;1399;47.072;15.452;2023-05-19T12:57:34;21.20;49.80
2783;DHT22;1399;47.072;15.452;2023-05-19T13:02:27;21.20;49.80
2783;DHT22;1399;47.072;15.452;2023-05-19T13:04:53;21.10;50.20
2783;DHT22;1399;47.072;15.452;2023-05-19T13:07:19;21.20;50.20
2783;DHT22;1399;47.072;15.452;2023-05-19T13:09:45;21.20;50.30
2783;DHT22;1399;47.072;15.452;2023-05-19T13:12:12;21.30;50.10
2783;DHT22;1399;47.072;15.452;2023-05-19T13:14:38;21.30;49.80
2783;DHT22;1399;47.072;15.452;2023-05-19T13:17:06;21.30;49.60
2783;DHT22;1399;47.072;15.452;2023-05-19T13:19:31;21.30;49.80
2783;DHT22;1399;47.072;15.452;2023-05-19T13:21:57;21.30;50.00
2783;DHT22;1399;47.072;15.452;2023-05-19T13:24:23;21.30;49.80
2783;DHT22;1399;47.072;15.452;2023-05-19T13:26:49;21.30;49.60
2783;DHT22;1399;47.072;15.452;2023-05-19T13:29:15;21.30;49.60
2783;DHT22;1399;47.072;15.452;2023-05-19T13:31:41;21.30;49.60
2783;DHT22;1399;47.072;15.452;2023-05-19T13:34:06;21.30;49.50
2783;DHT22;1399;47.072;15.452;2023-05-19T13:36:32;21.30;49.60
2783;DHT22;1399;47.072;15.452;2023-05-19T13:38:59;21.30;49.60
2783;DHT22;1399;47.072;15.452;2023-05-19T13:41:26;21.30;49.70
2783;DHT22;1399;47.072;15.452;2023-05-19T13:43:56;21.30;50.10
2783;DHT22;1399;47.072;15.452;2023-05-19T13:46:22;21.30;50.90
2783;DHT22;1399;47.072;15.452;2023-05-19T13:48:48;21.30;50.60
2783;DHT22;1399;47.072;15.452;2023-05-19T13:51:14;21.30;50.50
2783;DHT22;1399;47.072;15.452;2023-05-19T13:53:40;21.30;50.80
2783;DHT22;1399;47.072;15.452;2023-05-19T13:56:06;21.30;50.80
2783;DHT22;1399;47.072;15.452;2023-05-19T13:58:31;21.30;50.50
2783;DHT22;1399;47.072;15.452;2023-05-19T14:00:57;21.30;50.60
2783;DHT22;1399;47.072;15.452;2023-05-19T14:03:26;21.30;50.30
2783;DHT22;1399;47.072;15.452;2023-05-19T14:05:52;21.40;50.50
2783;DHT22;1399;47.072;15.452;2023-05-19T14:08:18;21.30;50.40
2783;DHT22;1399;47.072;15.452;2023-05-19T14:10:49;21.30;50.50
2783;DHT22;1399;47.072;15.452;2023-05-19T14:13:15;21.30;50.70
2783;DHT22;1399;47.072;15.452;2023-05-19T14:15:41;21.30;50.90
2783;DHT22;1399;47.072;15.452;2023-05-19T14:18:07;21.30;51.00
2783;DHT22;1399;47.072;15.452;2023-05-19T14:20:33;21.30;51.10
2783;DHT22;1399;47.072;15.452;2023-05-19T14:22:58;21.20;50.90
2783;DHT22;1399;47.072;15.452;2023-05-19T14:25:24;21.20;51.00
2783;DHT22;1399;47.072;15.452;2023-05-19T14:27:50;21.20;50.70
2783;DHT22;1399;47.072;15.452;2023-05-19T14:30:15;21.20;50.80
2783;DHT22;1399;47.072;15.452;2023-05-19T14:32:41;21.20;50.90
2783;DHT22;1399;47.072;15.452;2023-05-19T14:35:07;21.20;50.80
2783;DHT22;1399;47.072;15.452;2023-05-19T14:37:33;21.10;50.80
2783;DHT22;1399;47.072;15.452;2023-05-19T14:39:58;21.10;50.90
2783;DHT22;1399;47.072;15.452;2023-05-19T14:42:24;21.00;51.00
2783;DHT22;1399;47.072;15.452;2023-05-19T14:44:50;21.00;51.20
2783;DHT22;1399;47.072;15.452;2023-05-19T14:47:15;20.90;51.30
2783;DHT22;1399;47.072;15.452;2023-05-19T14:49:41;20.90;51.40
2783;DHT22;1399;47.072;15.452;2023-05-19T14:52:07;20.80;51.70
2783;DHT22;1399;47.072;15.452;2023-05-19T14:54:33;20.80;51.60
2783;DHT22;1399;47.072;15.452;2023-05-19T14:56:58;20.80;51.60
2783;DHT22;1399;47.072;15.452;2023-05-19T14:59:26;20.80;51.60
2783;DHT22;1399;47.072;15.452;2023-05-19T15:01:51;20.80;51.60
2783;DHT22;1399;47.072;15.452;2023-05-19T15:04:17;20.80;51.70
2783;DHT22;1399;47.072;15.452;2023-05-19T15:06:43;20.80;51.70
2783;DHT22;1399;47.072;15.452;2023-05-19T15:09:08;20.80;51.70
2783;DHT22;1399;47.072;15.452;2023-05-19T15:11:38;20.80;51.70
2783;DHT22;1399;47.072;15.452;2023-05-19T15:14:04;20.80;51.70
2783;DHT22;1399;47.072;15.452;2023-05-19T15:16:30;20.80;51.80
2783;DHT22;1399;47.072;15.452;2023-05-19T15:18:55;20.80;51.70
2783;DHT22;1399;47.072;15.452;2023-05-19T15:21:21;20.80;51.60
2783;DHT22;1399;47.072;15.452;2023-05-19T15:23:47;20.80;51.70
2783;DHT22;1399;47.072;15.452;2023-05-19T15:26:12;20.80;51.60
2783;DHT22;1399;47.072;15.452;2023-05-19T15:28:38;20.70;51.60
2783;DHT22;1399;47.072;15.452;2023-05-19T15:31:04;20.70;51.60
2783;DHT22;1399;47.072;15.452;2023-05-19T15:33:30;20.70;51.70
2783;DHT22;1399;47.072;15.452;2023-05-19T15:35:56;20.70;51.60
2783;DHT22;1399;47.072;15.452;2023-05-19T15:38:22;20.70;51.70
2783;DHT22;1399;47.072;15.452;2023-05-19T15:40:47;20.70;51.80
2783;DHT22;1399;47.072;15.452;2023-05-19T15:43:13;20.70;51.90
2783;DHT22;1399;47.072;15.452;2023-05-19T15:45:39;20.70;51.90
2783;DHT22;1399;47.072;15.452;2023-05-19T15:48:05;20.70;51.90
2783;DHT22;1399;47.072;15.452;2023-05-19T15:50:31;20.70;51.90
2783;DHT22;1399;47.072;15.452;2023-05-19T15:52:57;20.70;51.90
2783;DHT22;1399;47.072;15.452;2023-05-19T15:55:22;20.60;51.90
2783;DHT22;1399;47.072;15.452;2023-05-19T15:57:48;20.70;52.10
2783;DHT22;1399;47.072;15.452;2023-05-19T16:00:14;20.60;52.10
2783;DHT22;1399;47.072;15.452;2023-05-19T16:02:40;20.60;52.10
2783;DHT22;1399;47.072;15.452;2023-05-19T16:05:06;20.60;52.10
2783;DHT22;1399;47.072;15.452;2023-05-19T16:07:31;20.50;52.10
2783;DHT22;1399;47.072;15.452;2023-05-19T16:09:57;20.50;52.20
2783;DHT22;1399;47.072;15.452;2023-05-19T16:12:23;20.50;52.20
2783;DHT22;1399;47.072;15.452;2023-05-19T16:14:49;20.40;52.20
2783;DHT22;1399;47.072;15.452;2023-05-19T16:17:14;20.40;52.40
2783;DHT22;1399;47.072;15.452;2023-05-19T16:19:40;20.30;52.40
2783;DHT22;1399;47.072;15.452;2023-05-19T16:22:06;20.30;52.50
2783;DHT22;1399;47.072;15.452;2023-05-19T16:24:31;20.30;52.60